sensor_id;sensor_type;location;lat;lon;timestamp;P1;durP1;ratioP1;P2;durP2;ratioP2
37907;SDS011;23740;51.550;6.846;2023-08-06T00:01:01;4.30;;;2.50;;
37907;SDS011;23740;51.550;6.846;2023-08-06T00:03:29;2.97;;;2.42;;
37907;SDS011;23740;51.550;6.846;2023-08-06T00:05:57;2.78;;;2.40;;
37907;SDS011;23740;51.550;6.846;2023-08-06T00:08:25;3.40;;;2.75;;
37907;SDS011;23740;51.550;6.846;2023-08-06T00:10:53;3.55;;;2.33;;
37907;SDS011;23740;51.550;6.846;2023-08-06T00:13:22;3.08;;;2.25;;
37907;SDS011;23740;51.550;6.846;2023-08-06T00:15:49;3.60;;;2.60;;
37907;SDS011;23740;51.550;6.846;2023-08-06T00:18:17;4.13;;;2.38;;
37907;SDS011;23740;51.550;6.846;2023-08-06T00:20:45;2.83;;;2.35;;
37907;SDS011;23740;51.550;6.846;2023-08-06T00:23:13;2.90;;;2.25;;
37907;SDS011;23740;51.550;6.846;2023-08-06T00:25:41;4.30;;;2.40;;
37907;SDS011;23740;51.550;6.846;2023-08-06T00:28:09;3.03;;;2.05;;
37907;SDS011;23740;51.550;6.846;2023-08-06T00:30:38;3.05;;;2.03;;
37907;SDS011;23740;51.550;6.846;2023-08-06T00:33:06;3.25;;;2.95;;
37907;SDS011;23740;51.550;6.846;2023-08-06T00:35:34;2.90;;;2.30;;
37907;SDS011;23740;51.550;6.846;2023-08-06T00:38:02;3.53;;;2.30;;
37907;SDS011;23740;51.550;6.846;2023-08-06T00:40:30;4.00;;;2.28;;
37907;SDS011;23740;51.550;6.846;2023-08-06T00:42:57;4.00;;;2.58;;
37907;SDS011;23740;51.550;6.846;2023-08-06T00:45:25;3.63;;;2.42;;
37907;SDS011;23740;51.550;6.846;2023-08-06T00:47:55;4.03;;;2.88;;
37907;SDS011;23740;51.550;6.846;2023-08-06T00:50:23;3.33;;;2.50;;
37907;SDS011;23740;51.550;6.846;2023-08-06T00:52:50;3.08;;;2.28;;
37907;SDS011;23740;51.550;6.846;2023-08-06T00:55:18;4.47;;;2.97;;
37907;SDS011;23740;51.550;6.846;2023-08-06T00:57:46;3.13;;;2.25;;
37907;SDS011;23740;51.550;6.846;2023-08-06T01:00:14;3.63;;;2.50;;
37907;SDS011;23740;51.550;6.846;2023-08-06T01:02:42;4.63;;;2.53;;
37907;SDS011;23740;51.550;6.846;2023-08-06T01:05:14;5.88;;;2.80;;
37907;SDS011;23740;51.550;6.846;2023-08-06T01:07:44;3.25;;;2.65;;
37907;SDS011;23740;51.550;6.846;2023-08-06T01:10:27;4.50;;;2.42;;
37907;SDS011;23740;51.550;6.846;2023-08-06T01:13:03;4.40;;;2.33;;
37907;SDS011;23740;51.550;6.846;2023-08-06T01:15:37;4.20;;;2.78;;
37907;SDS011;23740;51.550;6.846;2023-08-06T01:18:09;3.70;;;2.50;;
37907;SDS011;23740;51.550;6.846;2023-08-06T01:20:39;3.05;;;2.28;;
37907;SDS011;23740;51.550;6.846;2023-08-06T01:23:06;2.72;;;2.10;;
37907;SDS011;23740;51.550;6.846;2023-08-06T01:25:35;4.10;;;2.42;;
37907;SDS011;23740;51.550;6.846;2023-08-06T01:28:10;3.60;;;2.67;;
37907;SDS011;23740;51.550;6.846;2023-08-06T01:30:54;3.78;;;2.88;;
37907;SDS011;23740;51.550;6.846;2023-08-06T01:33:22;5.55;;;3.15;;
37907;SDS011;23740;51.550;6.846;2023-08-06T01:35:52;4.20;;;2.67;;
37907;SDS011;23740;51.550;6.846;2023-08-06T01:38:22;3.75;;;2.55;;
37907;SDS011;23740;51.550;6.846;2023-08-06T01:40:50;2.65;;;2.40;;
37907;SDS011;23740;51.550;6.846;2023-08-06T01:43:18;4.22;;;2.60;;
37907;SDS011;23740;51.550;6.846;2023-08-06T01:45:46;4.55;;;2.63;;
37907;SDS011;23740;51.550;6.846;2023-08-06T01:48:14;4.60;;;2.60;;
37907;SDS011;23740;51.550;6.846;2023-08-06T01:50:42;3.88;;;2.42;;
37907;SDS011;23740;51.550;6.846;2023-08-06T01:53:11;5.47;;;2.22;;
37907;SDS011;23740;51.550;6.846;2023-08-06T01:55:38;3.38;;;2.38;;
37907;SDS011;23740;51.550;6.846;2023-08-06T01:58:06;8.65;;;2.83;;
37907;SDS011;23740;51.550;6.846;2023-08-06T02:00:34;3.38;;;2.42;;
37907;SDS011;23740;51.550;6.846;2023-08-06T02:03:02;3.95;;;2.85;;
37907;SDS011;23740;51.550;6.846;2023-08-06T02:05:32;3.53;;;2.80;;
37907;SDS011;23740;51.550;6.846;2023-08-06T02:08:00;3.42;;;2.65;;
37907;SDS011;23740;51.550;6.846;2023-08-06T02:10:29;3.83;;;2.60;;
37907;SDS011;23740;51.550;6.846;2023-08-06T02:12:57;2.65;;;2.42;;
37907;SDS011;23740;51.550;6.846;2023-08-06T02:15:25;4.35;;;2.75;;
37907;SDS011;23740;51.550;6.846;2023-08-06T02:17:52;3.15;;;2.85;;
37907;SDS011;23740;51.550;6.846;2023-08-06T02:20:20;3.30;;;2.53;;
37907;SDS011;23740;51.550;6.846;2023-08-06T02:22:48;4.45;;;2.55;;
37907;SDS011;23740;51.550;6.846;2023-08-06T02:25:16;3.33;;;2.40;;
37907;SDS011;23740;51.550;6.846;2023-08-06T02:27:45;3.78;;;2.90;;
37907;SDS011;23740;51.550;6.846;2023-08-06T02:30:13;3.88;;;2.53;;
37907;SDS011;23740;51.550;6.846;2023-08-06T02:32:41;3.65;;;2.50;;
37907;SDS011;23740;51.550;6.846;2023-08-06T02:35:09;2.92;;;2.35;;
37907;SDS011;23740;51.550;6.846;2023-08-06T02:37:37;3.28;;;2.35;;
37907;SDS011;23740;51.550;6.846;2023-08-06T02:40:05;3.08;;;2.17;;
37907;SDS011;23740;51.550;6.846;2023-08-06T02:42:33;2.95;;;2.10;;
37907;SDS011;23740;51.550;6.846;2023-08-06T02:45:03;3.42;;;2.35;;
37907;SDS011;23740;51.550;6.846;2023-08-06T02:47:31;3.17;;;2.53;;
37907;SDS011;23740;51.550;6.846;2023-08-06T02:49:59;3.08;;;2.22;;
37907;SDS011;23740;51.550;6.846;2023-08-06T02:52:27;3.05;;;2.35;;
37907;SDS011;23740;51.550;6.846;2023-08-06T02:54:54;3.58;;;2.38;;
37907;SDS011;23740;51.550;6.846;2023-08-06T02:57:24;3.28;;;2.17;;
37907;SDS011;23740;51.550;6.846;2023-08-06T02:59:52;2.90;;;2.40;;
37907;SDS011;23740;51.550;6.846;2023-08-06T03:02:21;2.58;;;1.95;;
37907;SDS011;23740;51.550;6.846;2023-08-06T03:04:49;3.53;;;1.95;;
37907;SDS011;23740;51.550;6.846;2023-08-06T03:07:17;5.00;;;2.50;;
37907;SDS011;23740;51.550;6.846;2023-08-06T03:09:45;2.65;;;2.33;;
37907;SDS011;23740;51.550;6.846;2023-08-06T03:12:12;3.25;;;1.98;;
37907;SDS011;23740;51.550;6.846;2023-08-06T03:14:40;2.95;;;2.03;;
37907;SDS011;23740;51.550;6.846;2023-08-06T03:17:07;2.17;;;1.88;;
37907;SDS011;23740;51.550;6.846;2023-08-06T03:19:37;2.75;;;2.38;;
37907;SDS011;23740;51.550;6.846;2023-08-06T03:22:04;2.42;;;1.88;;
37907;SDS011;23740;51.550;6.846;2023-08-06T03:24:33;2.20;;;1.95;;
37907;SDS011;23740;51.550;6.846;2023-08-06T03:27:00;3.83;;;2.00;;
37907;SDS011;23740;51.550;6.846;2023-08-06T03:29:28;2.20;;;1.83;;
37907;SDS011;23740;51.550;6.846;2023-08-06T03:31:56;2.88;;;1.80;;
37907;SDS011;23740;51.550;6.846;2023-08-06T03:34:24;4.75;;;2.30;;
37907;SDS011;23740;51.550;6.846;2023-08-06T03:36:53;2.13;;;1.70;;
37907;SDS011;23740;51.550;6.846;2023-08-06T03:39:21;4.03;;;2.55;;
37907;SDS011;23740;51.550;6.846;2023-08-06T03:41:48;3.35;;;1.95;;
37907;SDS011;23740;51.550;6.846;2023-08-06T03:44:17;3.72;;;2.60;;
37907;SDS011;23740;51.550;6.846;2023-08-06T03:46:44;3.47;;;2.20;;
37907;SDS011;23740;51.550;6.846;2023-08-06T03:49:12;4.18;;;2.65;;
37907;SDS011;23740;51.550;6.846;2023-08-06T03:51:46;3.35;;;2.40;;
37907;SDS011;23740;51.550;6.846;2023-08-06T03:54:18;3.22;;;2.30;;
37907;SDS011;23740;51.550;6.846;2023-08-06T03:56:46;3.10;;;2.67;;
37907;SDS011;23740;51.550;6.846;2023-08-06T03:59:16;3.75;;;2.63;;
37907;SDS011;23740;51.550;6.846;2023-08-06T04:01:44;4.20;;;2.45;;
37907;SDS011;23740;51.550;6.846;2023-08-06T04:04:12;2.95;;;2.20;;
37907;SDS011;23740;51.550;6.846;2023-08-06T04:06:42;3.45;;;2.45;;
37907;SDS011;23740;51.550;6.846;2023-08-06T04:09:10;2.92;;;2.50;;
37907;SDS011;23740;51.550;6.846;2023-08-06T04:11:40;4.32;;;2.28;;
37907;SDS011;23740;51.550;6.846;2023-08-06T04:14:07;3.28;;;2.20;;
37907;SDS011;23740;51.550;6.846;2023-08-06T04:16:35;2.95;;;2.10;;
37907;SDS011;23740;51.550;6.846;2023-08-06T04:19:03;4.07;;;2.28;;
37907;SDS011;23740;51.550;6.846;2023-08-06T04:21:33;3.42;;;2.30;;
37907;SDS011;23740;51.550;6.846;2023-08-06T04:24:01;2.85;;;2.20;;
37907;SDS011;23740;51.550;6.846;2023-08-06T04:26:29;3.83;;;1.95;;
37907;SDS011;23740;51.550;6.846;2023-08-06T04:28:58;2.72;;;2.38;;
37907;SDS011;23740;51.550;6.846;2023-08-06T04:31:26;2.92;;;2.03;;
37907;SDS011;23740;51.550;6.846;2023-08-06T04:33:53;3.33;;;2.10;;
37907;SDS011;23740;51.550;6.846;2023-08-06T04:36:23;2.65;;;1.70;;
37907;SDS011;23740;51.550;6.846;2023-08-06T04:38:50;2.78;;;1.90;;
37907;SDS011;23740;51.550;6.846;2023-08-06T04:41:18;3.67;;;2.08;;
37907;SDS011;23740;51.550;6.846;2023-08-06T04:43:46;3.95;;;2.03;;
37907;SDS011;23740;51.550;6.846;2023-08-06T04:46:18;1.98;;;1.73;;
37907;SDS011;23740;51.550;6.846;2023-08-06T04:48:46;2.55;;;1.92;;
37907;SDS011;23740;51.550;6.846;2023-08-06T04:51:14;2.60;;;1.90;;
37907;SDS011;23740;51.550;6.846;2023-08-06T04:53:42;2.80;;;2.15;;
37907;SDS011;23740;51.550;6.846;2023-08-06T04:56:09;2.67;;;1.90;;
37907;SDS011;23740;51.550;6.846;2023-08-06T04:58:37;2.67;;;2.08;;
37907;SDS011;23740;51.550;6.846;2023-08-06T05:01:05;3.63;;;2.25;;
37907;SDS011;23740;51.550;6.846;2023-08-06T05:03:37;3.35;;;1.88;;
37907;SDS011;23740;51.550;6.846;2023-08-06T05:06:05;2.85;;;1.98;;
37907;SDS011;23740;51.550;6.846;2023-08-06T05:08:33;2.50;;;2.10;;
37907;SDS011;23740;51.550;6.846;2023-08-06T05:11:00;3.30;;;2.42;;
37907;SDS011;23740;51.550;6.846;2023-08-06T05:13:28;2.67;;;2.10;;
37907;SDS011;23740;51.550;6.846;2023-08-06T05:15:56;2.95;;;1.98;;
37907;SDS011;23740;51.550;6.846;2023-08-06T05:18:24;2.78;;;1.92;;
37907;SDS011;23740;51.550;6.846;2023-08-06T05:20:53;2.42;;;1.73;;
37907;SDS011;23740;51.550;6.846;2023-08-06T05:23:21;3.28;;;2.10;;
37907;SDS011;23740;51.550;6.846;2023-08-06T05:25:48;2.50;;;1.90;;
37907;SDS011;23740;51.550;6.846;2023-08-06T05:28:16;3.78;;;2.22;;
37907;SDS011;23740;51.550;6.846;2023-08-06T05:30:44;3.08;;;2.10;;
37907;SDS011;23740;51.550;6.846;2023-08-06T05:33:12;4.88;;;2.42;;
37907;SDS011;23740;51.550;6.846;2023-08-06T05:35:40;3.17;;;2.28;;
37907;SDS011;23740;51.550;6.846;2023-08-06T05:38:09;2.17;;;1.98;;
37907;SDS011;23740;51.550;6.846;2023-08-06T05:40:37;3.58;;;2.30;;
37907;SDS011;23740;51.550;6.846;2023-08-06T05:43:05;4.50;;;2.30;;
37907;SDS011;23740;51.550;6.846;2023-08-06T05:45:33;2.05;;;1.70;;
37907;SDS011;23740;51.550;6.846;2023-08-06T05:48:00;3.50;;;2.53;;
37907;SDS011;23740;51.550;6.846;2023-08-06T05:50:28;4.68;;;2.20;;
37907;SDS011;23740;51.550;6.846;2023-08-06T05:52:56;2.80;;;2.30;;
37907;SDS011;23740;51.550;6.846;2023-08-06T05:55:28;2.28;;;1.80;;
37907;SDS011;23740;51.550;6.846;2023-08-06T05:57:58;2.70;;;2.00;;
37907;SDS011;23740;51.550;6.846;2023-08-06T06:00:26;2.70;;;2.20;;
37907;SDS011;23740;51.550;6.846;2023-08-06T06:02:54;2.55;;;2.05;;
37907;SDS011;23740;51.550;6.846;2023-08-06T06:05:22;2.15;;;1.70;;
37907;SDS011;23740;51.550;6.846;2023-08-06T06:07:52;2.13;;;1.85;;
37907;SDS011;23740;51.550;6.846;2023-08-06T06:10:20;4.97;;;2.40;;
37907;SDS011;23740;51.550;6.846;2023-08-06T06:12:49;2.22;;;1.88;;
37907;SDS011;23740;51.550;6.846;2023-08-06T06:15:17;3.35;;;2.17;;
37907;SDS011;23740;51.550;6.846;2023-08-06T06:17:45;3.58;;;2.47;;
37907;SDS011;23740;51.550;6.846;2023-08-06T06:20:13;3.05;;;2.47;;
37907;SDS011;23740;51.550;6.846;2023-08-06T06:22:41;4.70;;;2.45;;
37907;SDS011;23740;51.550;6.846;2023-08-06T06:25:09;1.95;;;1.70;;
37907;SDS011;23740;51.550;6.846;2023-08-06T06:27:37;5.05;;;2.20;;
37907;SDS011;23740;51.550;6.846;2023-08-06T06:30:07;2.38;;;1.65;;
37907;SDS011;23740;51.550;6.846;2023-08-06T06:32:36;2.55;;;1.83;;
37907;SDS011;23740;51.550;6.846;2023-08-06T06:35:06;2.90;;;2.03;;
37907;SDS011;23740;51.550;6.846;2023-08-06T06:37:34;3.00;;;2.28;;
37907;SDS011;23740;51.550;6.846;2023-08-06T06:40:02;3.50;;;2.20;;
37907;SDS011;23740;51.550;6.846;2023-08-06T06:42:31;3.35;;;2.38;;
37907;SDS011;23740;51.550;6.846;2023-08-06T06:44:58;3.15;;;1.98;;
37907;SDS011;23740;51.550;6.846;2023-08-06T06:47:28;2.40;;;2.17;;
37907;SDS011;23740;51.550;6.846;2023-08-06T06:49:55;2.50;;;1.80;;
37907;SDS011;23740;51.550;6.846;2023-08-06T06:52:23;2.35;;;1.88;;
37907;SDS011;23740;51.550;6.846;2023-08-06T06:54:51;3.10;;;2.40;;
37907;SDS011;23740;51.550;6.846;2023-08-06T06:57:19;2.60;;;2.15;;
37907;SDS011;23740;51.550;6.846;2023-08-06T06:59:46;2.00;;;1.60;;
37907;SDS011;23740;51.550;6.846;2023-08-06T07:02:14;2.67;;;2.13;;
37907;SDS011;23740;51.550;6.846;2023-08-06T07:04:43;2.75;;;1.73;;
37907;SDS011;23740;51.550;6.846;2023-08-06T07:07:10;2.78;;;2.15;;
37907;SDS011;23740;51.550;6.846;2023-08-06T07:09:38;2.47;;;1.60;;
37907;SDS011;23740;51.550;6.846;2023-08-06T07:12:06;2.80;;;1.73;;
37907;SDS011;23740;51.550;6.846;2023-08-06T07:14:34;2.65;;;1.92;;
37907;SDS011;23740;51.550;6.846;2023-08-06T07:17:02;5.20;;;2.28;;
37907;SDS011;23740;51.550;6.846;2023-08-06T07:19:30;2.80;;;2.35;;
37907;SDS011;23740;51.550;6.846;2023-08-06T07:21:59;2.75;;;2.20;;
37907;SDS011;23740;51.550;6.846;2023-08-06T07:24:27;3.03;;;2.35;;
37907;SDS011;23740;51.550;6.846;2023-08-06T07:26:55;4.00;;;2.45;;
37907;SDS011;23740;51.550;6.846;2023-08-06T07:29:23;2.95;;;2.42;;
37907;SDS011;23740;51.550;6.846;2023-08-06T07:31:50;2.10;;;1.90;;
37907;SDS011;23740;51.550;6.846;2023-08-06T07:34:19;3.17;;;2.30;;
37907;SDS011;23740;51.550;6.846;2023-08-06T07:36:46;2.05;;;1.50;;
37907;SDS011;23740;51.550;6.846;2023-08-06T07:39:16;3.60;;;1.80;;
37907;SDS011;23740;51.550;6.846;2023-08-06T07:41:44;2.33;;;1.70;;
37907;SDS011;23740;51.550;6.846;2023-08-06T07:44:12;2.30;;;1.70;;
37907;SDS011;23740;51.550;6.846;2023-08-06T07:46:41;5.13;;;3.90;;
37907;SDS011;23740;51.550;6.846;2023-08-06T07:49:09;2.92;;;1.90;;
37907;SDS011;23740;51.550;6.846;2023-08-06T07:51:38;2.55;;;1.77;;
37907;SDS011;23740;51.550;6.846;2023-08-06T07:54:06;3.53;;;2.38;;
37907;SDS011;23740;51.550;6.846;2023-08-06T07:56:35;2.92;;;1.75;;
37907;SDS011;23740;51.550;6.846;2023-08-06T07:59:04;2.67;;;1.92;;
37907;SDS011;23740;51.550;6.846;2023-08-06T08:01:31;2.42;;;2.22;;
37907;SDS011;23740;51.550;6.846;2023-08-06T08:03:59;2.60;;;2.40;;
37907;SDS011;23740;51.550;6.846;2023-08-06T08:06:27;2.15;;;1.95;;
37907;SDS011;23740;51.550;6.846;2023-08-06T08:08:55;2.38;;;2.15;;
37907;SDS011;23740;51.550;6.846;2023-08-06T08:11:23;2.58;;;2.28;;
37907;SDS011;23740;51.550;6.846;2023-08-06T08:13:52;4.10;;;2.30;;
37907;SDS011;23740;51.550;6.846;2023-08-06T08:16:20;4.32;;;2.42;;
37907;SDS011;23740;51.550;6.846;2023-08-06T08:18:48;2.63;;;2.42;;
37907;SDS011;23740;51.550;6.846;2023-08-06T08:21:16;3.50;;;2.58;;
37907;SDS011;23740;51.550;6.846;2023-08-06T08:23:44;4.38;;;3.17;;
37907;SDS011;23740;51.550;6.846;2023-08-06T08:26:11;2.92;;;2.60;;
37907;SDS011;23740;51.550;6.846;2023-08-06T08:28:39;3.75;;;3.42;;
37907;SDS011;23740;51.550;6.846;2023-08-06T08:31:09;3.95;;;2.78;;
37907;SDS011;23740;51.550;6.846;2023-08-06T08:33:37;3.10;;;2.70;;
37907;SDS011;23740;51.550;6.846;2023-08-06T08:36:05;5.00;;;4.60;;
37907;SDS011;23740;51.550;6.846;2023-08-06T08:38:36;3.25;;;2.70;;
37907;SDS011;23740;51.550;6.846;2023-08-06T08:41:03;4.90;;;4.03;;
37907;SDS011;23740;51.550;6.846;2023-08-06T08:43:31;3.85;;;2.75;;
37907;SDS011;23740;51.550;6.846;2023-08-06T08:46:00;3.88;;;3.00;;
37907;SDS011;23740;51.550;6.846;2023-08-06T08:48:30;4.13;;;3.28;;
37907;SDS011;23740;51.550;6.846;2023-08-06T08:50:58;3.72;;;3.03;;
37907;SDS011;23740;51.550;6.846;2023-08-06T08:53:26;3.75;;;2.92;;
37907;SDS011;23740;51.550;6.846;2023-08-06T08:55:55;3.03;;;2.72;;
37907;SDS011;23740;51.550;6.846;2023-08-06T08:58:23;3.30;;;2.50;;
37907;SDS011;23740;51.550;6.846;2023-08-06T09:00:51;5.57;;;3.70;;
37907;SDS011;23740;51.550;6.846;2023-08-06T09:03:21;4.13;;;3.00;;
37907;SDS011;23740;51.550;6.846;2023-08-06T09:05:53;3.92;;;3.13;;
37907;SDS011;23740;51.550;6.846;2023-08-06T09:08:23;4.97;;;2.50;;
37907;SDS011;23740;51.550;6.846;2023-08-06T09:10:54;4.57;;;2.85;;
37907;SDS011;23740;51.550;6.846;2023-08-06T09:13:24;2.95;;;2.33;;
37907;SDS011;23740;51.550;6.846;2023-08-06T09:15:54;3.88;;;2.72;;
37907;SDS011;23740;51.550;6.846;2023-08-06T09:18:25;4.55;;;2.35;;
37907;SDS011;23740;51.550;6.846;2023-08-06T09:20:55;5.63;;;2.95;;
37907;SDS011;23740;51.550;6.846;2023-08-06T09:23:27;4.13;;;2.90;;
37907;SDS011;23740;51.550;6.846;2023-08-06T09:25:56;4.90;;;3.10;;
37907;SDS011;23740;51.550;6.846;2023-08-06T09:28:24;3.95;;;3.22;;
37907;SDS011;23740;51.550;6.846;2023-08-06T09:30:52;3.92;;;3.53;;
37907;SDS011;23740;51.550;6.846;2023-08-06T09:33:22;4.88;;;3.38;;
37907;SDS011;23740;51.550;6.846;2023-08-06T09:35:50;5.05;;;3.95;;
37907;SDS011;23740;51.550;6.846;2023-08-06T09:38:19;6.45;;;3.88;;
37907;SDS011;23740;51.550;6.846;2023-08-06T09:40:47;5.25;;;3.47;;
37907;SDS011;23740;51.550;6.846;2023-08-06T09:43:15;5.90;;;4.07;;
37907;SDS011;23740;51.550;6.846;2023-08-06T09:45:43;6.18;;;3.55;;
37907;SDS011;23740;51.550;6.846;2023-08-06T09:48:11;5.97;;;3.20;;
37907;SDS011;23740;51.550;6.846;2023-08-06T09:50:39;6.07;;;3.70;;
37907;SDS011;23740;51.550;6.846;2023-08-06T09:53:07;5.78;;;3.60;;
37907;SDS011;23740;51.550;6.846;2023-08-06T09:55:37;4.45;;;3.20;;
37907;SDS011;23740;51.550;6.846;2023-08-06T09:58:05;3.92;;;3.53;;
37907;SDS011;23740;51.550;6.846;2023-08-06T10:00:33;4.57;;;3.67;;
37907;SDS011;23740;51.550;6.846;2023-08-06T10:03:05;4.22;;;3.35;;
37907;SDS011;23740;51.550;6.846;2023-08-06T10:05:34;4.35;;;3.42;;
37907;SDS011;23740;51.550;6.846;2023-08-06T10:08:02;4.35;;;3.17;;
37907;SDS011;23740;51.550;6.846;2023-08-06T10:10:31;4.38;;;3.47;;
37907;SDS011;23740;51.550;6.846;2023-08-06T10:13:00;4.93;;;2.95;;
37907;SDS011;23740;51.550;6.846;2023-08-06T10:15:30;4.38;;;3.35;;
37907;SDS011;23740;51.550;6.846;2023-08-06T10:17:59;5.47;;;3.85;;
37907;SDS011;23740;51.550;6.846;2023-08-06T10:20:27;4.57;;;3.22;;
37907;SDS011;23740;51.550;6.846;2023-08-06T10:23:01;5.07;;;3.97;;
37907;SDS011;23740;51.550;6.846;2023-08-06T10:25:32;5.20;;;3.95;;
37907;SDS011;23740;51.550;6.846;2023-08-06T10:28:02;6.72;;;4.90;;
37907;SDS011;23740;51.550;6.846;2023-08-06T10:30:41;7.43;;;5.70;;
37907;SDS011;23740;51.550;6.846;2023-08-06T10:33:10;6.40;;;5.35;;
37907;SDS011;23740;51.550;6.846;2023-08-06T10:35:40;6.70;;;5.97;;
37907;SDS011;23740;51.550;6.846;2023-08-06T10:38:10;6.68;;;5.97;;
37907;SDS011;23740;51.550;6.846;2023-08-06T10:40:40;6.78;;;6.07;;
37907;SDS011;23740;51.550;6.846;2023-08-06T10:43:29;7.03;;;5.95;;
37907;SDS011;23740;51.550;6.846;2023-08-06T10:45:58;6.45;;;5.85;;
37907;SDS011;23740;51.550;6.846;2023-08-06T10:48:30;7.72;;;6.93;;
37907;SDS011;23740;51.550;6.846;2023-08-06T10:50:59;8.00;;;6.53;;
37907;SDS011;23740;51.550;6.846;2023-08-06T10:53:27;7.47;;;6.38;;
37907;SDS011;23740;51.550;6.846;2023-08-06T10:55:59;6.25;;;5.63;;
37907;SDS011;23740;51.550;6.846;2023-08-06T10:58:32;6.45;;;5.80;;
37907;SDS011;23740;51.550;6.846;2023-08-06T11:01:00;7.78;;;5.70;;
37907;SDS011;23740;51.550;6.846;2023-08-06T11:03:29;7.43;;;5.60;;
37907;SDS011;23740;51.550;6.846;2023-08-06T11:05:56;7.93;;;6.45;;
37907;SDS011;23740;51.550;6.846;2023-08-06T11:08:24;8.43;;;5.85;;
37907;SDS011;23740;51.550;6.846;2023-08-06T11:10:53;5.38;;;4.85;;
37907;SDS011;23740;51.550;6.846;2023-08-06T11:13:29;6.28;;;4.80;;
37907;SDS011;23740;51.550;6.846;2023-08-06T11:15:59;9.90;;;5.35;;
37907;SDS011;23740;51.550;6.846;2023-08-06T11:18:28;5.82;;;4.85;;
37907;SDS011;23740;51.550;6.846;2023-08-06T11:20:58;5.95;;;4.45;;
37907;SDS011;23740;51.550;6.846;2023-08-06T11:23:26;4.15;;;3.22;;
37907;SDS011;23740;51.550;6.846;2023-08-06T11:25:54;3.38;;;2.67;;
37907;SDS011;23740;51.550;6.846;2023-08-06T11:28:22;3.25;;;2.03;;
37907;SDS011;23740;51.550;6.846;2023-08-06T11:30:50;0.90;;;0.80;;
37907;SDS011;23740;51.550;6.846;2023-08-06T11:33:21;0.90;;;0.80;;
37907;SDS011;23740;51.550;6.846;2023-08-06T11:35:51;1.77;;;0.80;;
37907;SDS011;23740;51.550;6.846;2023-08-06T11:38:19;0.88;;;0.80;;
37907;SDS011;23740;51.550;6.846;2023-08-06T11:40:47;0.85;;;0.70;;
37907;SDS011;23740;51.550;6.846;2023-08-06T11:43:15;1.42;;;1.05;;
37907;SDS011;23740;51.550;6.846;2023-08-06T11:45:43;1.75;;;0.90;;
37907;SDS011;23740;51.550;6.846;2023-08-06T11:48:11;1.02;;;0.68;;
37907;SDS011;23740;51.550;6.846;2023-08-06T11:50:40;1.50;;;1.08;;
37907;SDS011;23740;51.550;6.846;2023-08-06T11:53:11;2.15;;;1.40;;
37907;SDS011;23740;51.550;6.846;2023-08-06T11:55:40;1.60;;;1.10;;
37907;SDS011;23740;51.550;6.846;2023-08-06T11:58:09;1.10;;;0.93;;
37907;SDS011;23740;51.550;6.846;2023-08-06T12:00:37;0.88;;;0.70;;
37907;SDS011;23740;51.550;6.846;2023-08-06T12:03:06;0.60;;;0.60;;
37907;SDS011;23740;51.550;6.846;2023-08-06T12:05:34;0.70;;;0.60;;
37907;SDS011;23740;51.550;6.846;2023-08-06T12:08:06;0.45;;;0.40;;
37907;SDS011;23740;51.550;6.846;2023-08-06T12:10:33;0.50;;;0.50;;
37907;SDS011;23740;51.550;6.846;2023-08-06T12:13:01;1.20;;;0.65;;
37907;SDS011;23740;51.550;6.846;2023-08-06T12:15:30;0.38;;;0.38;;
37907;SDS011;23740;51.550;6.846;2023-08-06T12:17:59;0.35;;;0.35;;
37907;SDS011;23740;51.550;6.846;2023-08-06T12:20:27;0.50;;;0.50;;
37907;SDS011;23740;51.550;6.846;2023-08-06T12:22:55;1.10;;;1.10;;
37907;SDS011;23740;51.550;6.846;2023-08-06T12:25:25;0.98;;;0.98;;
37907;SDS011;23740;51.550;6.846;2023-08-06T12:27:53;0.93;;;0.90;;
37907;SDS011;23740;51.550;6.846;2023-08-06T12:30:20;1.00;;;0.90;;
37907;SDS011;23740;51.550;6.846;2023-08-06T12:32:48;0.35;;;0.35;;
37907;SDS011;23740;51.550;6.846;2023-08-06T12:35:18;0.30;;;0.25;;
37907;SDS011;23740;51.550;6.846;2023-08-06T12:37:46;0.20;;;0.20;;
37907;SDS011;23740;51.550;6.846;2023-08-06T12:40:14;0.40;;;0.30;;
37907;SDS011;23740;51.550;6.846;2023-08-06T12:43:02;0.55;;;0.20;;
37907;SDS011;23740;51.550;6.846;2023-08-06T12:45:32;0.20;;;0.20;;
37907;SDS011;23740;51.550;6.846;2023-08-06T12:48:02;0.35;;;0.10;;
37907;SDS011;23740;51.550;6.846;2023-08-06T12:50:30;1.42;;;0.30;;
37907;SDS011;23740;51.550;6.846;2023-08-06T12:52:59;0.98;;;0.35;;
37907;SDS011;23740;51.550;6.846;2023-08-06T12:55:27;0.40;;;0.20;;
37907;SDS011;23740;51.550;6.846;2023-08-06T12:57:58;0.38;;;0.20;;
37907;SDS011;23740;51.550;6.846;2023-08-06T13:00:27;0.93;;;0.30;;
37907;SDS011;23740;51.550;6.846;2023-08-06T13:02:58;0.40;;;0.40;;
37907;SDS011;23740;51.550;6.846;2023-08-06T13:05:26;0.45;;;0.45;;
37907;SDS011;23740;51.550;6.846;2023-08-06T13:07:57;0.32;;;0.32;;
37907;SDS011;23740;51.550;6.846;2023-08-06T13:10:25;0.82;;;0.50;;
37907;SDS011;23740;51.550;6.846;2023-08-06T13:12:55;0.60;;;0.40;;
37907;SDS011;23740;51.550;6.846;2023-08-06T13:15:23;0.60;;;0.40;;
37907;SDS011;23740;51.550;6.846;2023-08-06T13:17:52;1.55;;;0.60;;
37907;SDS011;23740;51.550;6.846;2023-08-06T13:20:20;0.93;;;0.88;;
37907;SDS011;23740;51.550;6.846;2023-08-06T13:22:49;2.38;;;2.17;;
37907;SDS011;23740;51.550;6.846;2023-08-06T13:25:19;1.40;;;1.30;;
37907;SDS011;23740;51.550;6.846;2023-08-06T13:27:47;1.88;;;1.65;;
37907;SDS011;23740;51.550;6.846;2023-08-06T13:30:15;0.80;;;0.77;;
37907;SDS011;23740;51.550;6.846;2023-08-06T13:32:44;2.72;;;0.90;;
37907;SDS011;23740;51.550;6.846;2023-08-06T13:35:16;1.27;;;0.85;;
37907;SDS011;23740;51.550;6.846;2023-08-06T13:37:44;1.25;;;1.15;;
37907;SDS011;23740;51.550;6.846;2023-08-06T13:40:13;2.53;;;1.25;;
37907;SDS011;23740;51.550;6.846;2023-08-06T13:42:40;1.80;;;1.15;;
37907;SDS011;23740;51.550;6.846;2023-08-06T13:45:09;1.23;;;1.00;;
37907;SDS011;23740;51.550;6.846;2023-08-06T13:47:37;1.60;;;1.10;;
37907;SDS011;23740;51.550;6.846;2023-08-06T13:50:05;2.13;;;1.20;;
37907;SDS011;23740;51.550;6.846;2023-08-06T13:52:35;1.85;;;1.30;;
37907;SDS011;23740;51.550;6.846;2023-08-06T13:55:03;1.70;;;1.50;;
37907;SDS011;23740;51.550;6.846;2023-08-06T13:57:31;1.55;;;1.40;;
37907;SDS011;23740;51.550;6.846;2023-08-06T13:59:59;4.07;;;3.22;;
37907;SDS011;23740;51.550;6.846;2023-08-06T14:02:27;2.10;;;1.90;;
37907;SDS011;23740;51.550;6.846;2023-08-06T14:04:56;1.65;;;1.55;;
37907;SDS011;23740;51.550;6.846;2023-08-06T14:07:24;4.00;;;3.65;;
37907;SDS011;23740;51.550;6.846;2023-08-06T14:09:53;2.40;;;1.63;;
37907;SDS011;23740;51.550;6.846;2023-08-06T14:12:23;2.35;;;1.50;;
37907;SDS011;23740;51.550;6.846;2023-08-06T14:14:51;2.67;;;1.38;;
37907;SDS011;23740;51.550;6.846;2023-08-06T14:17:19;1.75;;;1.30;;
37907;SDS011;23740;51.550;6.846;2023-08-06T14:19:47;1.77;;;1.30;;
37907;SDS011;23740;51.550;6.846;2023-08-06T14:22:15;1.92;;;1.35;;
37907;SDS011;23740;51.550;6.846;2023-08-06T14:24:43;1.65;;;1.50;;
37907;SDS011;23740;51.550;6.846;2023-08-06T14:27:12;2.25;;;1.30;;
37907;SDS011;23740;51.550;6.846;2023-08-06T14:29:40;2.33;;;1.50;;
37907;SDS011;23740;51.550;6.846;2023-08-06T14:32:08;1.58;;;1.48;;
37907;SDS011;23740;51.550;6.846;2023-08-06T14:34:36;2.35;;;1.80;;
37907;SDS011;23740;51.550;6.846;2023-08-06T14:37:03;1.65;;;1.20;;
37907;SDS011;23740;51.550;6.846;2023-08-06T14:39:31;2.08;;;1.30;;
37907;SDS011;23740;51.550;6.846;2023-08-06T14:41:59;2.88;;;1.52;;
37907;SDS011;23740;51.550;6.846;2023-08-06T14:44:28;2.63;;;1.58;;
37907;SDS011;23740;51.550;6.846;2023-08-06T14:46:56;1.42;;;1.23;;
37907;SDS011;23740;51.550;6.846;2023-08-06T14:49:24;1.73;;;1.33;;
37907;SDS011;23740;51.550;6.846;2023-08-06T14:51:52;1.98;;;1.70;;
37907;SDS011;23740;51.550;6.846;2023-08-06T14:54:20;2.90;;;1.48;;
37907;SDS011;23740;51.550;6.846;2023-08-06T14:56:48;1.52;;;1.25;;